Time;durP1;ratioP1;P1;durP2;ratioP2;P2;SDS_P1;SDS_P2;PMS_P1;PMS_P2;Temp;Humidity;BMP_temperature;BMP_pressure;BME280_temperature;BME280_humidity;BME280_pressure;Samples;Min_cycle;Max_cycle;Signal;HPM_P1;HPM_P2
2023/09/13 00:01:57;;;;;;;8.75;5.25;;;23.20;99.90;;;;;;5052915;28;20202;-64
2023/09/13 00:04:24;;;;;;;6.57;4.82;;;23.20;99.90;;;;;;5052622;28;20610;-64
2023/09/13 00:06:51;;;;;;;7.65;5.15;;;23.10;99.90;;;;;;5053341;28;20259;-64
2023/09/13 00:09:19;;;;;;;9.90;5.13;;;23.20;99.90;;;;;;5052783;28;20208;-64
2023/09/13 00:11:46;;;;;;;8.68;5.32;;;23.10;99.90;;;;;;5052920;28;20212;-64
2023/09/13 00:14:13;;;;;;;10.38;5.20;;;23.10;99.90;;;;;;5053176;28;20210;-64
2023/09/13 00:16:40;;;;;;;6.70;5.35;;;23.10;99.90;;;;;;5053297;28;20209;-64
2023/09/13 00:19:07;;;;;;;7.55;5.07;;;22.90;99.90;;;;;;5052847;28;20208;-64
2023/09/13 00:21:34;;;;;;;9.60;5.05;;;22.80;99.90;;;;;;5052906;28;20217;-63
2023/09/13 00:24:00;;;;;;;9.73;5.68;;;22.70;99.90;;;;;;5052852;28;20257;-63
2023/09/13 00:26:28;;;;;;;7.45;5.55;;;22.70;99.90;;;;;;5052840;28;20226;-63
2023/09/13 00:28:56;;;;;;;9.70;5.25;;;22.70;99.90;;;;;;5052507;28;20256;-64
2023/09/13 00:31:22;;;;;;;10.38;5.60;;;22.70;99.90;;;;;;5052502;28;20209;-63
2023/09/13 00:33:49;;;;;;;8.93;5.15;;;22.70;99.90;;;;;;5052274;28;20251;-63
2023/09/13 00:36:16;;;;;;;10.75;6.10;;;22.70;99.90;;;;;;5052252;28;20233;-63
2023/09/13 00:38:42;;;;;;;6.35;5.03;;;22.70;99.90;;;;;;5052768;28;20201;-63
2023/09/13 00:41:09;;;;;;;8.65;6.03;;;22.60;99.90;;;;;;5052878;28;20210;-63
2023/09/13 00:43:37;;;;;;;8.10;5.40;;;22.60;99.90;;;;;;5052078;28;20225;-63
2023/09/13 00:46:05;;;;;;;8.30;5.93;;;22.50;99.90;;;;;;5052265;28;20248;-64
2023/09/13 00:48:35;;;;;;;8.98;5.90;;;22.40;99.90;;;;;;5052339;28;20687;-63
2023/09/13 00:51:03;;;;;;;8.40;5.22;;;22.40;99.90;;;;;;5052714;28;20202;-63
2023/09/13 00:53:32;;;;;;;7.90;5.75;;;22.40;99.90;;;;;;5052003;28;20216;-64
2023/09/13 00:55:59;;;;;;;7.82;5.43;;;22.40;99.90;;;;;;5052014;28;20686;-63
2023/09/13 00:58:27;;;;;;;10.40;5.88;;;22.40;99.90;;;;;;5051960;28;20265;-64
2023/09/13 01:00:55;;;;;;;8.93;5.55;;;22.50;99.90;;;;;;5051757;28;20228;-64
2023/09/13 01:03:23;;;;;;;6.90;6.20;;;22.50;99.90;;;;;;5051345;28;20229;-63
2023/09/13 01:05:52;;;;;;;8.45;6.30;;;22.50;99.90;;;;;;5051850;28;20236;-63
2023/09/13 01:08:19;;;;;;;7.38;5.32;;;22.40;99.90;;;;;;5051692;28;20703;-63
2023/09/13 01:10:46;;;;;;;7.88;4.97;;;22.40;99.90;;;;;;5051858;28;20217;-63
2023/09/13 01:13:13;;;;;;;10.48;5.15;;;22.40;99.90;;;;;;5050826;28;20212;-64
2023/09/13 01:15:47;;;;;;;7.55;5.65;;;22.20;99.90;;;;;;5051669;28;20261;-63
2023/09/13 01:18:22;;;;;;;8.50;5.85;;;22.20;99.90;;;;;;5051686;28;20229;-63
2023/09/13 01:21:10;;;;;;;8.70;6.13;;;22.20;99.90;;;;;;5051517;28;20678;-63
2023/09/13 01:23:56;;;;;;;8.30;5.40;;;22.20;99.90;;;;;;5051208;28;20242;-63
2023/09/13 01:26:44;;;;;;;6.00;5.25;;;22.20;99.90;;;;;;5051713;28;20229;-64
2023/09/13 01:29:14;;;;;;;8.23;5.53;;;22.20;99.90;;;;;;5051931;28;20233;-64
2023/09/13 01:31:42;;;;;;;6.75;5.50;;;22.20;99.90;;;;;;5051938;28;20268;-63
2023/09/13 01:34:10;;;;;;;7.22;5.75;;;22.20;99.90;;;;;;5051522;28;20787;-63
2023/09/13 01:36:38;;;;;;;14.15;6.20;;;22.10;99.90;;;;;;5051616;28;20344;-63
2023/09/13 01:39:05;;;;;;;6.15;5.20;;;22.10;99.90;;;;;;5051131;28;20608;-63
2023/09/13 01:41:37;;;;;;;9.63;5.82;;;22.00;99.90;;;;;;5051629;28;20212;-63
2023/09/13 01:44:05;;;;;;;6.47;5.68;;;21.90;99.90;;;;;;5051351;28;20212;-63
2023/09/13 01:46:36;;;;;;;11.00;6.38;;;21.90;99.90;;;;;;5088503;22;20241;-60
2023/09/13 01:49:05;;;;;;;9.93;6.22;;;21.90;99.90;;;;;;5059118;28;20593;-64
2023/09/13 01:51:33;;;;;;;7.60;5.78;;;21.90;99.90;;;;;;5060275;28;20213;-59
2023/09/13 01:54:00;;;;;;;8.15;5.22;;;21.90;99.90;;;;;;5062438;28;20624;-60
2023/09/13 01:56:27;;;;;;;5.88;5.13;;;21.80;99.90;;;;;;5045725;28;20729;-60
2023/09/13 01:58:53;;;;;;;6.05;5.13;;;21.80;99.90;;;;;;5039136;28;20205;-60
2023/09/13 02:01:20;;;;;;;9.43;6.25;;;21.80;99.90;;;;;;5039449;28;20576;-60
2023/09/13 02:03:49;;;;;;;6.32;4.70;;;21.70;99.90;;;;;;5038561;28;20225;-60
2023/09/13 02:06:15;;;;;;;4.97;4.47;;;21.60;99.90;;;;;;5038788;28;20408;-60
2023/09/13 02:08:43;;;;;;;6.05;4.22;;;21.60;99.90;;;;;;5041893;28;20216;-60
2023/09/13 02:11:10;;;;;;;4.75;3.97;;;21.60;99.90;;;;;;5042284;28;20209;-61
2023/09/13 02:13:37;;;;;;;6.07;3.92;;;21.60;99.90;;;;;;5039885;28;20255;-60
2023/09/13 02:16:04;;;;;;;4.85;3.53;;;21.60;99.90;;;;;;5038926;28;20226;-58
2023/09/13 02:18:31;;;;;;;7.07;3.50;;;21.60;99.90;;;;;;5039863;28;20630;-60
2023/09/13 02:20:59;;;;;;;5.40;3.55;;;21.60;99.90;;;;;;5042299;28;20206;-60
2023/09/13 02:23:26;;;;;;;4.18;3.78;;;21.60;99.90;;;;;;5042266;28;20611;-59
2023/09/13 02:25:54;;;;;;;4.10;3.53;;;21.60;99.90;;;;;;5042652;28;20222;-60
2023/09/13 02:28:21;;;;;;;4.68;3.50;;;21.60;99.90;;;;;;5042628;28;20213;-60
2023/09/13 02:30:48;;;;;;;5.85;3.50;;;21.60;99.90;;;;;;5042535;28;20209;-60
2023/09/13 02:33:14;;;;;;;4.60;4.20;;;21.50;99.90;;;;;;5042237;28;20590;-59
2023/09/13 02:35:41;;;;;;;5.72;4.50;;;21.50;99.90;;;;;;5045071;28;20221;-59
2023/09/13 02:38:09;;;;;;;4.78;3.67;;;21.50;99.90;;;;;;5046004;28;20206;-59
2023/09/13 02:40:37;;;;;;;7.93;4.25;;;21.40;99.90;;;;;;5044117;28;20291;-60
2023/09/13 02:43:04;;;;;;;6.15;4.10;;;21.40;99.90;;;;;;5042401;28;20218;-60
2023/09/13 02:45:31;;;;;;;6.80;4.10;;;21.40;99.90;;;;;;5043018;28;20230;-59
2023/09/13 02:47:58;;;;;;;6.13;3.80;;;21.40;99.90;;;;;;5045918;28;20208;-60
2023/09/13 02:50:24;;;;;;;4.70;4.05;;;21.40;99.90;;;;;;5045616;28;20236;-59
2023/09/13 02:52:51;;;;;;;4.63;4.00;;;21.30;99.90;;;;;;5042233;28;20203;-59
2023/09/13 02:55:19;;;;;;;6.63;4.10;;;21.30;99.90;;;;;;5042072;28;20711;-59
2023/09/13 02:57:46;;;;;;;5.82;4.45;;;21.20;99.90;;;;;;5045209;28;20208;-59
2023/09/13 03:00:14;;;;;;;6.80;4.40;;;21.20;99.90;;;;;;5045482;28;20217;-60
2023/09/13 03:02:41;;;;;;;5.32;4.40;;;21.20;99.90;;;;;;5042702;28;20603;-59
2023/09/13 03:05:08;;;;;;;5.97;5.07;;;21.10;99.90;;;;;;5041898;28;20226;-60
2023/09/13 03:07:35;;;;;;;5.55;4.57;;;21.10;99.90;;;;;;5043677;28;20228;-61
2023/09/13 03:10:02;;;;;;;5.30;4.80;;;21.00;99.90;;;;;;5045315;28;20197;-61
2023/09/13 03:12:30;;;;;;;6.75;5.50;;;20.90;99.90;;;;;;5044202;28;20211;-58
2023/09/13 03:14:57;;;;;;;11.23;9.95;;;20.90;99.90;;;;;;5041508;28;20285;-58
2023/09/13 03:17:23;;;;;;;11.15;8.35;;;20.80;99.90;;;;;;5041782;28;20206;-59
2023/09/13 03:19:50;;;;;;;6.13;5.50;;;20.80;99.90;;;;;;5045364;28;20198;-61
2023/09/13 03:22:17;;;;;;;8.93;5.35;;;20.70;99.90;;;;;;5045027;28;20252;-61
2023/09/13 03:24:43;;;;;;;7.95;5.93;;;20.70;99.90;;;;;;5041876;28;20229;-57
2023/09/13 03:27:10;;;;;;;5.20;4.70;;;20.60;99.90;;;;;;5041492;28;20217;-59
2023/09/13 03:29:38;;;;;;;6.55;5.13;;;20.60;99.90;;;;;;5043399;28;20238;-61
2023/09/13 03:32:06;;;;;;;8.38;4.90;;;20.60;99.90;;;;;;5044828;28;20217;-60
2023/09/13 03:34:33;;;;;;;6.65;5.50;;;20.60;99.90;;;;;;5042889;28;20710;-61
2023/09/13 03:37:00;;;;;;;6.50;4.63;;;20.50;99.90;;;;;;5041121;28;20202;-62
2023/09/13 03:39:28;;;;;;;7.00;4.53;;;20.50;99.90;;;;;;5041443;28;20221;-60
2023/09/13 03:41:56;;;;;;;6.13;5.53;;;20.50;99.90;;;;;;5044341;28;20206;-60
2023/09/13 03:44:22;;;;;;;17.95;5.05;;;20.50;99.90;;;;;;5044259;28;20229;-60
2023/09/13 03:46:50;;;;;;;6.10;5.07;;;20.50;99.90;;;;;;5040792;28;20226;-57
2023/09/13 03:49:17;;;;;;;5.93;4.32;;;20.50;99.90;;;;;;5041135;28;20678;-58
2023/09/13 03:51:44;;;;;;;5.85;4.05;;;20.50;99.90;;;;;;5043470;28;20213;-60
2023/09/13 03:54:10;;;;;;;5.35;4.25;;;20.50;99.90;;;;;;5044042;28;20210;-60
2023/09/13 03:56:37;;;;;;;4.45;4.05;;;20.50;99.90;;;;;;5042241;28;20240;-61
2023/09/13 03:59:04;;;;;;;7.15;4.53;;;20.50;99.90;;;;;;5040968;28;20206;-59
2023/09/13 04:01:31;;;;;;;5.68;4.30;;;20.50;99.90;;;;;;5041831;28;20213;-58
2023/09/13 04:03:59;;;;;;;6.30;4.40;;;20.60;99.90;;;;;;5043696;28;20205;-57
2023/09/13 04:06:25;;;;;;;4.88;4.25;;;20.50;99.90;;;;;;5043862;28;20264;-59
2023/09/13 04:08:52;;;;;;;6.13;4.47;;;20.50;99.90;;;;;;5041002;28;20202;-59
2023/09/13 04:11:19;;;;;;;8.30;4.63;;;20.50;99.90;;;;;;5040734;28;20210;-61
2023/09/13 04:13:45;;;;;;;6.63;4.03;;;20.60;99.90;;;;;;5042895;28;20229;-59
2023/09/13 04:16:15;;;;;;;6.47;4.45;;;20.60;99.90;;;;;;5043712;28;20343;-59
2023/09/13 04:18:41;;;;;;;5.22;3.95;;;20.70;99.90;;;;;;5041445;28;20205;-59
2023/09/13 04:21:09;;;;;;;4.63;3.85;;;20.70;99.90;;;;;;5040165;28;20209;-60
2023/09/13 04:23:36;;;;;;;4.05;3.53;;;20.80;99.90;;;;;;5041290;28;20210;-59
2023/09/13 04:26:03;;;;;;;4.93;4.43;;;20.80;99.90;;;;;;5043436;28;20233;-61
2023/09/13 04:28:30;;;;;;;5.68;3.95;;;20.90;99.90;;;;;;5042826;28;20210;-59
2023/09/13 04:30:59;;;;;;;4.30;3.90;;;20.90;99.90;;;;;;5040148;28;20326;-57
2023/09/13 04:33:47;;;;;;;10.52;4.55;;;20.90;99.90;;;;;;5039940;28;20254;-59
2023/09/13 04:36:15;;;;;;;5.03;4.03;;;20.80;99.90;;;;;;5039989;28;20234;-61
2023/09/13 04:38:41;;;;;;;5.40;4.20;;;20.80;99.90;;;;;;5042061;28;20210;-61
2023/09/13 04:41:13;;;;;;;5.53;4.00;;;20.80;99.90;;;;;;5043768;28;20209;-57
2023/09/13 04:43:40;;;;;;;4.90;4.13;;;20.80;99.90;;;;;;5041137;28;20205;-60
2023/09/13 04:46:07;;;;;;;6.07;4.15;;;20.80;99.90;;;;;;5039357;28;20234;-59
2023/09/13 04:48:34;;;;;;;5.07;3.95;;;20.70;99.90;;;;;;5039857;28;20206;-60
2023/09/13 04:51:00;;;;;;;5.97;3.90;;;20.70;99.90;;;;;;5043129;28;20205;-59
2023/09/13 04:53:28;;;;;;;4.55;3.90;;;20.70;99.90;;;;;;5042754;28;20212;-59
2023/09/13 04:55:56;;;;;;;4.75;4.15;;;20.70;99.90;;;;;;5039190;28;20617;-59
2023/09/13 04:58:23;;;;;;;10.70;4.40;;;20.70;99.90;;;;;;5039518;28;20202;-62
2023/09/13 05:00:49;;;;;;;7.65;4.30;;;20.80;99.90;;;;;;5042396;28;20198;-57
2023/09/13 05:03:16;;;;;;;5.55;4.50;;;20.80;99.90;;;;;;5042518;28;20294;-59
2023/09/13 05:05:43;;;;;;;6.30;4.35;;;20.80;99.90;;;;;;5040479;28;20237;-59
2023/09/13 05:08:09;;;;;;;6.45;4.50;;;20.90;99.90;;;;;;5039687;28;20213;-59
2023/09/13 05:10:39;;;;;;;6.25;4.10;;;20.90;99.90;;;;;;5040234;28;20700;-61
2023/09/13 05:13:06;;;;;;;4.80;4.22;;;20.90;99.90;;;;;;5041780;28;20304;-59
2023/09/13 05:15:32;;;;;;;7.43;4.80;;;21.00;99.90;;;;;;5041427;28;20244;-58
2023/09/13 05:17:59;;;;;;;3.95;3.55;;;21.00;99.90;;;;;;5039005;28;20653;-59
2023/09/13 05:20:26;;;;;;;4.95;3.80;;;21.00;99.90;;;;;;5039381;28;20213;-58
2023/09/13 05:22:53;;;;;;;5.47;3.85;;;21.10;99.90;;;;;;5038847;28;20589;-57
2023/09/13 05:25:20;;;;;;;5.30;3.85;;;21.10;99.90;;;;;;5039097;28;20225;-61
2023/09/13 05:27:48;;;;;;;4.88;4.03;;;21.20;99.90;;;;;;5041812;28;20214;-61
2023/09/13 05:30:15;;;;;;;4.82;3.60;;;21.30;99.90;;;;;;5042510;28;20209;-59
2023/09/13 05:32:41;;;;;;;4.93;3.70;;;21.30;99.90;;;;;;5040363;28;20220;-58
2023/09/13 05:35:09;;;;;;;6.82;3.83;;;21.40;99.90;;;;;;5039186;28;20607;-61
2023/09/13 05:37:35;;;;;;;8.98;3.50;;;21.60;99.90;;;;;;5039816;28;20707;-63
2023/09/13 05:40:06;;;;;;;5.57;3.85;;;21.70;99.90;;;;;;5042350;28;20198;-58
2023/09/13 05:42:33;;;;;;;5.97;5.38;;;21.70;99.90;;;;;;5041447;28;20635;-54
2023/09/13 05:45:01;;;;;;;8.93;7.22;;;21.70;99.90;;;;;;5038461;28;20596;-54
2023/09/13 05:47:29;;;;;;;7.03;3.92;;;21.80;99.90;;;;;;5038547;28;20229;-54
2023/09/13 05:49:56;;;;;;;4.60;3.50;;;22.00;99.90;;;;;;5042151;28;20206;-57
2023/09/13 05:52:22;;;;;;;3.78;3.13;;;22.30;99.90;;;;;;5042140;28;20717;-58
2023/09/13 05:54:49;;;;;;;3.70;3.05;;;22.70;99.90;;;;;;5038523;28;20206;-57
2023/09/13 05:57:16;;;;;;;4.65;3.33;;;23.00;99.90;;;;;;5038496;28;20202;-58
2023/09/13 05:59:42;;;;;;;3.70;3.20;;;23.20;99.90;;;;;;5043873;28;20672;-57
2023/09/13 06:02:10;;;;;;;4.03;3.53;;;23.20;99.90;;;;;;5046446;28;20213;-57
2023/09/13 06:04:37;;;;;;;7.30;3.50;;;23.30;99.90;;;;;;5044578;28;20227;-57
2023/09/13 06:07:04;;;;;;;3.50;3.20;;;23.40;99.90;;;;;;5042944;28;20202;-57
2023/09/13 06:09:31;;;;;;;4.30;3.50;;;23.50;99.90;;;;;;5042635;28;20224;-57
2023/09/13 06:11:58;;;;;;;5.38;2.97;;;23.50;99.90;;;;;;5045868;28;20225;-56
2023/09/13 06:14:24;;;;;;;6.07;3.40;;;23.60;99.90;;;;;;5046054;28;20244;-55
2023/09/13 06:16:51;;;;;;;3.95;3.40;;;23.60;99.90;;;;;;5042641;28;20217;-56
2023/09/13 06:19:19;;;;;;;5.93;4.05;;;23.60;99.90;;;;;;5042456;28;20225;-56
2023/09/13 06:21:47;;;;;;;4.78;3.53;;;23.60;99.90;;;;;;5044510;28;20233;-56
2023/09/13 06:24:13;;;;;;;3.40;3.08;;;23.70;99.90;;;;;;5045429;28;20702;-57
2023/09/13 06:26:40;;;;;;;4.32;3.00;;;23.70;99.90;;;;;;5044032;28;20230;-54
2023/09/13 06:29:07;;;;;;;4.57;3.20;;;23.70;99.90;;;;;;5042229;28;20202;-56
2023/09/13 06:31:34;;;;;;;4.38;3.42;;;23.70;99.90;;;;;;5042828;28;20217;-55
2023/09/13 06:34:00;;;;;;;4.88;3.08;;;23.70;99.90;;;;;;5045246;28;20236;-54
2023/09/13 06:36:28;;;;;;;6.03;3.28;;;23.80;99.90;;;;;;5045395;28;20715;-55
2023/09/13 06:38:55;;;;;;;4.65;3.13;;;23.70;99.90;;;;;;5042173;28;20213;-57
2023/09/13 06:41:22;;;;;;;3.47;2.85;;;23.60;99.90;;;;;;5042538;28;20213;-57
2023/09/13 06:43:48;;;;;;;3.78;2.85;;;23.50;99.90;;;;;;5044336;28;20214;-59
2023/09/13 06:46:15;;;;;;;2.80;2.60;;;23.40;99.90;;;;;;5045175;28;20225;-57
2023/09/13 06:48:42;;;;;;;7.15;3.10;;;23.40;99.90;;;;;;5043810;28;20206;-58
2023/09/13 06:51:08;;;;;;;4.57;3.17;;;23.40;99.90;;;;;;5041958;28;20725;-55
2023/09/13 06:53:36;;;;;;;6.07;3.17;;;23.30;99.90;;;;;;5042737;28;20210;-56
2023/09/13 06:56:04;;;;;;;4.70;3.20;;;23.30;99.90;;;;;;5044926;28;20218;-58
2023/09/13 06:58:31;;;;;;;4.45;3.10;;;23.30;99.90;;;;;;5044891;28;20236;-58
2023/09/13 07:00:58;;;;;;;5.05;2.85;;;23.20;99.90;;;;;;5041627;28;20202;-59
2023/09/13 07:03:24;;;;;;;3.85;2.90;;;23.10;99.90;;;;;;5041392;28;20221;-54
2023/09/13 07:05:51;;;;;;;5.25;3.30;;;23.20;99.90;;;;;;5044202;28;20614;-54
2023/09/13 07:08:18;;;;;;;5.00;2.45;;;23.10;99.90;;;;;;5045147;28;20209;-58
2023/09/13 07:10:46;;;;;;;3.30;2.97;;;23.10;99.90;;;;;;5042201;28;20213;-55
2023/09/13 07:13:12;;;;;;;3.92;2.70;;;23.10;99.90;;;;;;5041137;28;20202;-58
2023/09/13 07:15:40;;;;;;;3.67;2.63;;;23.20;99.90;;;;;;5042452;28;20226;-59
2023/09/13 07:18:08;;;;;;;4.15;2.72;;;23.30;99.90;;;;;;5044961;28;20206;-58
2023/09/13 07:20:35;;;;;;;3.00;2.70;;;23.10;99.90;;;;;;5044255;28;20282;-58
2023/09/13 07:23:03;;;;;;;4.68;2.97;;;23.10;99.90;;;;;;5041397;28;20214;-55
2023/09/13 07:25:29;;;;;;;5.15;2.95;;;23.10;99.90;;;;;;5041229;28;20680;-55
2023/09/13 07:27:58;;;;;;;4.25;2.70;;;23.10;99.90;;;;;;5041469;28;20203;-56
2023/09/13 07:30:25;;;;;;;5.55;2.70;;;23.10;99.90;;;;;;5041494;28;20210;-54
2023/09/13 07:32:51;;;;;;;3.75;2.83;;;23.00;99.90;;;;;;5043655;28;20210;-54
2023/09/13 07:35:20;;;;;;;5.65;2.97;;;23.00;99.90;;;;;;5044588;28;20244;-55
2023/09/13 07:37:47;;;;;;;3.30;3.00;;;22.90;99.90;;;;;;5042700;28;20237;-55
2023/09/13 07:40:14;;;;;;;3.05;2.75;;;22.90;99.90;;;;;;5041082;28;20206;-54
2023/09/13 07:42:40;;;;;;;3.42;3.13;;;23.10;99.90;;;;;;5041886;28;20222;-55
2023/09/13 07:45:09;;;;;;;4.22;2.90;;;23.30;99.90;;;;;;5044333;28;20647;-54
2023/09/13 07:47:36;;;;;;;2.90;2.60;;;23.10;99.90;;;;;;5043403;28;20212;-57
2023/09/13 07:50:03;;;;;;;3.05;2.75;;;23.00;99.90;;;;;;5040976;28;20242;-54
2023/09/13 07:52:30;;;;;;;4.32;2.80;;;23.10;99.90;;;;;;5040922;28;20207;-54
2023/09/13 07:54:56;;;;;;;2.70;2.50;;;23.10;99.90;;;;;;5043828;28;20225;-58
2023/09/13 07:57:23;;;;;;;3.92;2.58;;;23.10;99.90;;;;;;5044333;28;20213;-58
2023/09/13 07:59:50;;;;;;;3.28;2.45;;;23.10;99.90;;;;;;5041668;28;20213;-54
2023/09/13 08:02:18;;;;;;;3.10;2.60;;;23.30;99.90;;;;;;5040392;28;20210;-57
2023/09/13 08:04:44;;;;;;;3.85;2.80;;;23.30;99.90;;;;;;5042313;28;20210;-57
2023/09/13 08:07:11;;;;;;;3.08;2.67;;;23.40;99.90;;;;;;5043951;28;20226;-55
2023/09/13 08:09:38;;;;;;;9.15;3.05;;;23.30;99.90;;;;;;5042943;28;20667;-55
2023/09/13 08:12:05;;;;;;;3.75;2.28;;;23.50;99.90;;;;;;5040364;28;20208;-58
2023/09/13 08:14:34;;;;;;;3.42;2.70;;;23.60;99.90;;;;;;5040327;28;20217;-54
2023/09/13 08:17:00;;;;;;;3.55;2.80;;;23.90;99.90;;;;;;5040491;28;20202;-57
2023/09/13 08:19:28;;;;;;;5.53;2.50;;;24.10;99.90;;;;;;5040253;28;20207;-57
2023/09/13 08:21:55;;;;;;;2.78;2.45;;;24.30;99.90;;;;;;5043122;28;20229;-59
2023/09/13 08:24:22;;;;;;;3.35;2.72;;;24.50;99.90;;;;;;5043481;28;20300;-56
2023/09/13 08:26:49;;;;;;;3.28;2.40;;;24.60;99.90;;;;;;5041329;28;20225;-60
2023/09/13 08:29:15;;;;;;;2.80;2.42;;;24.70;99.90;;;;;;5040317;28;20293;-59
2023/09/13 08:31:42;;;;;;;2.83;2.45;;;24.90;99.90;;;;;;5041264;28;20580;-56
2023/09/13 08:34:09;;;;;;;3.30;2.47;;;25.10;99.90;;;;;;5043313;28;20213;-58
2023/09/13 08:36:38;;;;;;;3.03;2.13;;;25.40;99.90;;;;;;5043198;28;20218;-56
2023/09/13 08:39:05;;;;;;;3.90;2.78;;;25.60;99.90;;;;;;5040387;28;20210;-57
2023/09/13 08:41:32;;;;;;;3.15;2.40;;;25.90;99.90;;;;;;5040235;28;20207;-56
2023/09/13 08:44:01;;;;;;;2.60;2.33;;;26.10;99.90;;;;;;5039890;28;20198;-59
2023/09/13 08:46:29;;;;;;;3.47;2.35;;;26.30;99.90;;;;;;5039654;28;20719;-56
2023/09/13 08:48:56;;;;;;;3.60;2.50;;;26.40;99.90;;;;;;5042969;28;20566;-56
2023/09/13 08:51:24;;;;;;;3.85;2.28;;;26.30;99.90;;;;;;5043359;28;20216;-59
2023/09/13 08:53:52;;;;;;;3.58;2.80;;;26.20;99.90;;;;;;5040666;28;20205;-58
2023/09/13 08:56:20;;;;;;;3.08;2.55;;;26.00;99.90;;;;;;5039622;28;20712;-60
2023/09/13 08:58:47;;;;;;;3.13;2.80;;;26.10;99.90;;;;;;5041511;28;20210;-57
2023/09/13 09:01:18;;;;;;;3.58;2.60;;;26.20;99.90;;;;;;5043021;28;20209;-61
2023/09/13 09:03:47;;;;;;;4.38;2.22;;;26.20;99.90;;;;;;5039092;28;20209;-64
2023/09/13 09:06:17;;;;;;;7.13;2.70;;;26.10;99.90;;;;;;5039145;28;20233;-62
2023/09/13 09:08:45;;;;;;;3.25;2.72;;;26.00;99.90;;;;;;5040438;28;20252;-62
2023/09/13 09:11:14;;;;;;;3.58;2.63;;;25.90;99.90;;;;;;5038173;28;20206;-59
2023/09/13 09:13:43;;;;;;;3.38;2.50;;;25.90;99.90;;;;;;5038558;28;20210;-59
2023/09/13 09:16:11;;;;;;;3.95;2.50;;;26.00;99.90;;;;;;5039367;28;20226;-59
2023/09/13 09:18:40;;;;;;;26.95;4.20;;;25.90;99.90;;;;;;5040008;28;20214;-62
2023/09/13 09:21:07;;;;;;;4.28;2.90;;;25.70;99.90;;;;;;5042845;28;20678;-64
2023/09/13 09:23:35;;;;;;;5.07;3.20;;;25.80;99.90;;;;;;5042481;28;20228;-62
2023/09/13 09:26:04;;;;;;;2.60;2.35;;;26.00;99.90;;;;;;5038956;28;20592;-62
2023/09/13 09:28:32;;;;;;;4.22;2.80;;;26.30;99.90;;;;;;5039359;28;20241;-59
2023/09/13 09:31:00;;;;;;;17.08;11.32;;;26.50;99.90;;;;;;5042553;28;20230;-62
2023/09/13 09:33:28;;;;;;;4.13;2.97;;;26.80;99.90;;;;;;5041661;28;20216;-59
2023/09/13 09:35:57;;;;;;;3.75;2.63;;;26.80;99.90;;;;;;5039559;28;20262;-61
2023/09/13 09:38:25;;;;;;;4.60;2.67;;;26.80;99.90;;;;;;5038826;28;20286;-60
2023/09/13 09:40:55;;;;;;;2.95;2.65;;;26.60;99.90;;;;;;5041553;28;20210;-59
2023/09/13 09:43:23;;;;;;;5.50;2.88;;;26.40;99.90;;;;;;5042094;28;20201;-61
2023/09/13 09:45:51;;;;;;;6.63;4.30;;;26.30;99.90;;;;;;5039857;28;20605;-63
2023/09/13 09:48:18;;;;;;;3.67;3.10;;;26.30;99.90;;;;;;5039064;28;20206;-61
2023/09/13 09:50:46;;;;;;;3.40;3.10;;;26.20;99.90;;;;;;5039652;28;20206;-61
2023/09/13 09:53:14;;;;;;;3.28;2.97;;;26.10;99.90;;;;;;5041658;28;20690;-62
2023/09/13 09:55:41;;;;;;;4.30;3.00;;;26.00;99.90;;;;;;5041366;28;20597;-62
2023/09/13 09:58:08;;;;;;;5.50;3.67;;;26.00;99.90;;;;;;5038830;28;20210;-56
2023/09/13 10:00:49;;;;;;;7.28;3.70;;;26.00;99.90;;;;;;5038793;28;20208;-61
2023/09/13 10:03:20;;;;;;;4.35;3.42;;;26.10;99.90;;;;;;5038261;28;20578;-60
2023/09/13 10:06:10;;;;;;;6.00;3.88;;;26.20;99.90;;;;;;5040368;28;20230;-62
2023/09/13 10:08:38;;;;;;;3.60;3.30;;;26.30;99.90;;;;;;5042030;28;20219;-60
2023/09/13 10:11:06;;;;;;;3.10;2.80;;;26.40;99.90;;;;;;5038721;28;20236;-61
2023/09/13 10:13:33;;;;;;;4.25;2.97;;;26.60;99.90;;;;;;5038501;28;20260;-61
2023/09/13 10:16:01;;;;;;;3.92;3.60;;;26.60;99.90;;;;;;5041764;28;20628;-59
2023/09/13 10:18:32;;;;;;;4.05;2.95;;;26.60;99.90;;;;;;5042580;28;20229;-60
2023/09/13 10:21:00;;;;;;;4.53;3.47;;;26.60;99.90;;;;;;5039360;28;20207;-59
2023/09/13 10:23:30;;;;;;;4.07;2.75;;;26.70;99.90;;;;;;5038410;28;20684;-59
2023/09/13 10:26:01;;;;;;;3.28;2.90;;;26.80;99.90;;;;;;5041266;28;20746;-58
2023/09/13 10:28:31;;;;;;;3.75;3.08;;;26.40;99.90;;;;;;5042392;28;20205;-57
2023/09/13 10:30:59;;;;;;;3.70;2.70;;;26.20;99.90;;;;;;5038983;28;20218;-59
2023/09/13 10:33:31;;;;;;;3.53;2.20;;;26.20;99.90;;;;;;5038668;28;20624;-60
2023/09/13 10:36:01;;;;;;;3.55;2.65;;;26.30;99.90;;;;;;5041112;28;20650;-60
2023/09/13 10:38:37;;;;;;;4.20;2.40;;;26.40;99.90;;;;;;5041914;28;20553;-59
2023/09/13 10:41:08;;;;;;;5.65;2.60;;;26.40;99.90;;;;;;5038629;28;20205;-58
2023/09/13 10:43:37;;;;;;;3.70;2.35;;;26.30;99.90;;;;;;5038317;28;20217;-60
2023/09/13 10:46:04;;;;;;;5.68;2.72;;;26.30;99.90;;;;;;5041885;28;20245;-59
2023/09/13 10:48:35;;;;;;;4.75;2.85;;;26.50;99.90;;;;;;5042214;28;20599;-57
2023/09/13 10:51:04;;;;;;;2.40;2.20;;;26.50;99.90;;;;;;5045055;28;20691;-57
2023/09/13 10:53:31;;;;;;;4.70;2.90;;;26.50;99.90;;;;;;5045427;28;20224;-58
2023/09/13 10:55:57;;;;;;;2.88;2.50;;;26.40;99.90;;;;;;5042331;28;20234;-57
2023/09/13 10:58:26;;;;;;;5.40;3.00;;;26.30;99.90;;;;;;5042001;28;20210;-59
2023/09/13 11:00:54;;;;;;;4.25;3.13;;;26.20;99.90;;;;;;5043746;28;20221;-59
2023/09/13 11:03:22;;;;;;;5.70;3.30;;;26.00;99.90;;;;;;5044965;28;20206;-59
2023/09/13 11:05:52;;;;;;;5.57;3.00;;;26.00;99.90;;;;;;5043738;28;20230;-59
2023/09/13 11:08:30;;;;;;;4.47;3.03;;;26.00;99.90;;;;;;5041575;28;20317;-59
2023/09/13 11:10:57;;;;;;;5.55;3.20;;;25.90;99.90;;;;;;5044141;28;20279;-59
2023/09/13 11:13:31;;;;;;;5.32;3.20;;;26.10;99.90;;;;;;5044693;28;20583;-60
2023/09/13 11:16:03;;;;;;;5.28;2.78;;;26.40;99.90;;;;;;5041815;28;20852;-60
2023/09/13 11:18:31;;;;;;;2.80;2.60;;;26.40;99.90;;;;;;5041463;28;20202;-60
2023/09/13 11:20:59;;;;;;;3.42;2.80;;;26.60;99.90;;;;;;5043771;28;20206;-60
2023/09/13 11:23:26;;;;;;;4.07;3.30;;;26.80;99.90;;;;;;5044535;28;20220;-61
2023/09/13 11:25:54;;;;;;;3.00;2.33;;;27.00;99.90;;;;;;5042328;28;20597;-59
2023/09/13 11:28:33;;;;;;;4.80;2.78;;;27.10;99.90;;;;;;5041167;28;20230;-59
2023/09/13 11:31:01;;;;;;;3.60;3.10;;;27.20;99.90;;;;;;5044126;28;20205;-60
2023/09/13 11:33:29;;;;;;;3.63;3.13;;;27.30;99.90;;;;;;5044533;28;20206;-61
2023/09/13 11:35:57;;;;;;;3.72;2.95;;;27.40;99.90;;;;;;5042052;28;20235;-60
2023/09/13 11:38:25;;;;;;;8.05;3.45;;;27.20;99.90;;;;;;5041331;28;20208;-61
2023/09/13 11:40:56;;;;;;;3.70;3.25;;;27.00;99.90;;;;;;5042940;28;20550;-60
2023/09/13 11:43:24;;;;;;;3.78;3.40;;;27.10;99.90;;;;;;5044276;28;20202;-58
2023/09/13 11:45:55;;;;;;;5.38;2.92;;;26.90;99.90;;;;;;5042036;28;20240;-59
2023/09/13 11:48:28;;;;;;;4.13;3.17;;;26.90;99.90;;;;;;5041083;28;20364;-60
2023/09/13 11:50:56;;;;;;;7.43;4.40;;;27.20;99.90;;;;;;5043152;28;20654;-60
2023/09/13 11:53:27;;;;;;;4.63;3.03;;;27.60;99.90;;;;;;5043521;28;20201;-61
2023/09/13 11:55:56;;;;;;;5.15;3.45;;;27.70;99.90;;;;;;5041409;28;20257;-60
2023/09/13 11:58:31;;;;;;;3.92;3.33;;;27.70;99.90;;;;;;5040868;28;20237;-57
2023/09/13 12:00:59;;;;;;;3.78;3.40;;;27.40;99.90;;;;;;5043384;28;20202;-60
2023/09/13 12:03:27;;;;;;;4.10;3.35;;;27.10;99.90;;;;;;5043964;28;20205;-59
2023/09/13 12:05:54;;;;;;;3.83;3.47;;;26.80;99.90;;;;;;5041803;28;20229;-60
2023/09/13 12:08:22;;;;;;;3.78;3.22;;;26.70;99.90;;;;;;5040884;28;20226;-60
2023/09/13 12:10:51;;;;;;;5.72;3.30;;;26.80;99.90;;;;;;5041913;28;20202;-59
2023/09/13 12:13:18;;;;;;;4.97;3.40;;;27.00;99.90;;;;;;5043682;28;20671;-60
2023/09/13 12:16:06;;;;;;;3.95;3.55;;;27.30;99.90;;;;;;5043176;28;20253;-57
2023/09/13 12:18:34;;;;;;;4.97;3.63;;;27.40;99.90;;;;;;5034203;28;20218;-60
2023/09/13 12:21:01;;;;;;;5.20;3.40;;;27.40;99.90;;;;;;5043167;28;20198;-60
2023/09/13 12:23:28;;;;;;;3.25;2.95;;;27.30;99.90;;;;;;5043801;28;20211;-59
2023/09/13 12:25:57;;;;;;;3.55;3.03;;;27.20;99.90;;;;;;5041366;28;20233;-60
2023/09/13 12:28:28;;;;;;;6.13;3.40;;;27.10;99.90;;;;;;5040565;28;20234;-61
2023/09/13 12:30:56;;;;;;;3.47;2.80;;;27.20;99.90;;;;;;5042480;28;20214;-61
2023/09/13 12:33:24;;;;;;;3.58;2.70;;;27.50;99.90;;;;;;5043371;28;20627;-60
2023/09/13 12:35:51;;;;;;;3.88;3.00;;;27.60;99.90;;;;;;5042180;28;20228;-60
2023/09/13 12:38:19;;;;;;;3.40;2.63;;;27.60;99.90;;;;;;5039930;28;20209;-59
2023/09/13 12:40:54;;;;;;;3.10;2.80;;;27.70;99.90;;;;;;5040942;28;20336;-60
2023/09/13 12:43:30;;;;;;;3.75;3.20;;;27.70;99.90;;;;;;5043001;28;20201;-60
2023/09/13 12:45:57;;;;;;;3.45;2.83;;;27.80;99.90;;;;;;5040762;28;20275;-61
2023/09/13 12:48:25;;;;;;;3.90;2.55;;;28.00;99.90;;;;;;5040009;28;20231;-60
2023/09/13 12:50:52;;;;;;;3.67;3.15;;;28.00;99.90;;;;;;5041061;28;20240;-60